Time;durP1;ratioP1;P1;durP2;ratioP2;P2;SDS_P1;SDS_P2;PMS_P1;PMS_P2;Temp;Humidity;BMP_temperature;BMP_pressure;BME280_temperature;BME280_humidity;BME280_pressure;Samples;Min_cycle;Max_cycle;Signal;HPM_P1;HPM_P2
2023/03/02 00:01:53;;;;;;;3.70;2.30;;;;;;;;;;5042623;28;20045;-64
2023/03/02 00:04:27;;;;;;;8.63;2.70;;;;;;;;;;5045939;28;20171;-64
2023/03/02 00:06:57;;;;;;;6.47;2.65;;;;;;;;;;5039588;28;20557;-65
2023/03/02 00:09:23;;;;;;;4.80;2.55;;;;;;;;;;5046825;28;20496;-64
2023/03/02 00:11:50;;;;;;;8.00;2.60;;;;;;;;;;5033592;28;20049;-68
2023/03/02 00:14:16;;;;;;;9.10;3.00;;;;;;;;;;5042636;28;20057;-65
2023/03/02 00:16:45;;;;;;;4.30;2.65;;;;;;;;;;5041902;28;20067;-65
2023/03/02 00:19:11;;;;;;;7.75;2.60;;;;;;;;;;5046477;28;20064;-66
2023/03/02 00:21:37;;;;;;;5.22;2.50;;;;;;;;;;5045345;28;20410;-67
2023/03/02 00:24:04;;;;;;;5.30;2.60;;;;;;;;;;5042995;28;20461;-64
2023/03/02 00:26:33;;;;;;;6.97;2.65;;;;;;;;;;5044641;28;20048;-65
2023/03/02 00:29:01;;;;;;;5.82;2.50;;;;;;;;;;5038628;28;20073;-65
2023/03/02 00:31:26;;;;;;;6.30;2.30;;;;;;;;;;5049780;28;20119;-64
2023/03/02 00:33:53;;;;;;;6.47;2.80;;;;;;;;;;5044372;28;20576;-64
2023/03/02 00:36:20;;;;;;;5.88;2.90;;;;;;;;;;5041703;28;20048;-64
2023/03/02 00:38:47;;;;;;;5.13;2.60;;;;;;;;;;5042475;28;20037;-64
2023/03/02 00:41:14;;;;;;;5.03;2.40;;;;;;;;;;5044726;28;20049;-65
2023/03/02 00:43:41;;;;;;;5.00;2.80;;;;;;;;;;5044131;28;20056;-65
2023/03/02 00:46:13;;;;;;;8.23;2.72;;;;;;;;;;5034586;28;20041;-64
2023/03/02 00:48:40;;;;;;;6.10;2.60;;;;;;;;;;5044779;28;20467;-64
2023/03/02 00:51:07;;;;;;;4.95;2.22;;;;;;;;;;5043483;28;20650;-64
2023/03/02 00:53:33;;;;;;;3.33;2.35;;;;;;;;;;5047120;28;20102;-64
2023/03/02 00:56:00;;;;;;;9.05;2.60;;;;;;;;;;5040824;28;20048;-65
2023/03/02 00:58:26;;;;;;;6.32;2.80;;;;;;;;;;5043303;28;20436;-65
2023/03/02 01:00:56;;;;;;;6.75;2.85;;;;;;;;;;5048201;28;20096;-67
2023/03/02 01:03:22;;;;;;;5.65;2.60;;;;;;;;;;5047348;28;20036;-66
2023/03/02 01:05:48;;;;;;;4.95;2.97;;;;;;;;;;5042133;28;20049;-65
2023/03/02 01:08:16;;;;;;;5.90;3.00;;;;;;;;;;5043732;28;20056;-66
2023/03/02 01:10:41;;;;;;;6.35;2.42;;;;;;;;;;5044868;28;20384;-63
2023/03/02 01:13:08;;;;;;;6.15;2.75;;;;;;;;;;5046656;28;20126;-67
2023/03/02 01:15:35;;;;;;;6.18;3.00;;;;;;;;;;5041716;28;20041;-65
2023/03/02 01:18:01;;;;;;;8.18;2.50;;;;;;;;;;5047047;28;20064;-65
2023/03/02 01:20:28;;;;;;;8.95;2.65;;;;;;;;;;5047508;28;20045;-66
2023/03/02 01:22:54;;;;;;;6.55;2.38;;;;;;;;;;5042771;28;20049;-66
2023/03/02 01:25:22;;;;;;;4.60;2.55;;;;;;;;;;5040584;28;20060;-65
2023/03/02 01:27:49;;;;;;;4.63;2.25;;;;;;;;;;5046734;28;20056;-65
2023/03/02 01:30:17;;;;;;;5.30;3.13;;;;;;;;;;5044258;28;20056;-66
2023/03/02 01:32:45;;;;;;;5.15;2.60;;;;;;;;;;5045435;28;20049;-66
2023/03/02 01:35:11;;;;;;;6.18;2.67;;;;;;;;;;5043211;28;20060;-66
2023/03/02 01:37:37;;;;;;;5.05;2.25;;;;;;;;;;5046607;28;20060;-65
2023/03/02 01:40:05;;;;;;;3.35;2.28;;;;;;;;;;5047752;28;20044;-65
2023/03/02 01:42:38;;;;;;;6.13;2.40;;;;;;;;;;5046263;28;20052;-63
2023/03/02 01:45:04;;;;;;;5.85;2.72;;;;;;;;;;5045047;28;20048;-65
2023/03/02 01:47:37;;;;;;;6.50;2.50;;;;;;;;;;5046234;28;20107;-67
2023/03/02 01:50:25;;;;;;;4.40;2.33;;;;;;;;;;5044449;28;20053;-67
2023/03/02 01:52:53;;;;;;;4.07;2.35;;;;;;;;;;5042334;28;20146;-66
2023/03/02 01:55:24;;;;;;;4.00;2.40;;;;;;;;;;5043520;28;20085;-66
2023/03/02 01:57:53;;;;;;;9.57;2.65;;;;;;;;;;5047234;28;20474;-66
2023/03/02 02:00:26;;;;;;;4.03;2.35;;;;;;;;;;5044844;28;20452;-67
2023/03/02 02:03:07;;;;;;;6.25;2.75;;;;;;;;;;5043151;28;20119;-66
2023/03/02 02:05:35;;;;;;;4.18;2.78;;;;;;;;;;5042504;28;20074;-67
2023/03/02 02:08:01;;;;;;;4.47;2.40;;;;;;;;;;5040654;28;20053;-69
2023/03/02 02:10:27;;;;;;;4.32;2.60;;;;;;;;;;5046620;28;20795;-63
2023/03/02 02:12:53;;;;;;;4.28;2.47;;;;;;;;;;5045825;28;20439;-65
2023/03/02 02:15:19;;;;;;;5.53;3.10;;;;;;;;;;5046249;28;20069;-65
2023/03/02 02:17:45;;;;;;;5.03;2.90;;;;;;;;;;5041158;28;20060;-64
2023/03/02 02:20:45;;;;;;;5.57;2.65;;;;;;;;;;5042028;28;21029;-65
2023/03/02 02:23:36;;;;;;;4.20;2.60;;;;;;;;;;5022270;28;20049;-65
2023/03/02 02:26:06;;;;;;;3.78;2.50;;;;;;;;;;5043774;28;20447;-65
2023/03/02 02:28:43;;;;;;;7.07;3.00;;;;;;;;;;5043021;28;20057;-66
2023/03/02 02:31:21;;;;;;;10.15;3.22;;;;;;;;;;5043925;28;20128;-66
2023/03/02 02:33:58;;;;;;;5.53;2.58;;;;;;;;;;5040926;28;20049;-64
2023/03/02 02:36:32;;;;;;;6.05;2.85;;;;;;;;;;5041996;28;20056;-65
2023/03/02 02:39:03;;;;;;;9.52;2.70;;;;;;;;;;5039337;28;20049;-65
2023/03/02 02:41:37;;;;;;;3.85;2.50;;;;;;;;;;5039623;28;20119;-65
2023/03/02 02:44:03;;;;;;;6.85;2.78;;;;;;;;;;5044854;28;20205;-64
2023/03/02 02:46:31;;;;;;;4.20;2.60;;;;;;;;;;5022559;28;20084;-65
2023/03/02 02:49:02;;;;;;;6.10;2.60;;;;;;;;;;5042487;28;20048;-63
2023/03/02 02:51:28;;;;;;;5.57;3.20;;;;;;;;;;5036764;28;20068;-65
2023/03/02 02:54:01;;;;;;;4.72;3.03;;;;;;;;;;5045737;28;20173;-68
2023/03/02 02:56:34;;;;;;;5.65;2.95;;;;;;;;;;5043162;28;20535;-66
2023/03/02 02:59:23;;;;;;;4.90;2.92;;;;;;;;;;5040265;28;20162;-66
2023/03/02 03:01:50;;;;;;;6.25;3.00;;;;;;;;;;5048871;28;20184;-65
2023/03/02 03:04:25;;;;;;;5.40;3.25;;;;;;;;;;5042080;28;20122;-66
2023/03/02 03:06:59;;;;;;;8.35;3.35;;;;;;;;;;5040320;28;20480;-65
2023/03/02 03:09:26;;;;;;;6.05;3.30;;;;;;;;;;5044687;28;20049;-65
2023/03/02 03:12:17;;;;;;;7.53;3.03;;;;;;;;;;5046800;28;20423;-67
2023/03/02 03:14:44;;;;;;;7.05;3.05;;;;;;;;;;5041432;28;20045;-65
2023/03/02 03:17:13;;;;;;;5.30;3.08;;;;;;;;;;5044652;28;20143;-64
2023/03/02 03:19:43;;;;;;;3.47;2.88;;;;;;;;;;5038283;28;20049;-64
2023/03/02 03:22:14;;;;;;;7.60;3.28;;;;;;;;;;5024910;28;20098;-64
2023/03/02 03:24:42;;;;;;;8.02;3.22;;;;;;;;;;5038388;28;20049;-64
2023/03/02 03:27:11;;;;;;;6.47;3.05;;;;;;;;;;5035787;28;20419;-63
2023/03/02 03:29:40;;;;;;;5.00;2.90;;;;;;;;;;5044277;28;20045;-64
2023/03/02 03:32:06;;;;;;;9.60;3.38;;;;;;;;;;5044038;28;20052;-64
2023/03/02 03:34:39;;;;;;;4.70;2.72;;;;;;;;;;5044048;28;20064;-64
2023/03/02 03:37:08;;;;;;;6.47;3.10;;;;;;;;;;5037904;28;20195;-64
2023/03/02 03:39:34;;;;;;;3.55;2.97;;;;;;;;;;5040805;28;20071;-63
2023/03/02 03:42:00;;;;;;;4.68;3.05;;;;;;;;;;5041253;28;20044;-63
2023/03/02 03:44:27;;;;;;;5.00;2.70;;;;;;;;;;5039458;28;20151;-66
2023/03/02 03:46:53;;;;;;;4.97;2.80;;;;;;;;;;5041772;28;20136;-64
2023/03/02 03:49:19;;;;;;;5.70;2.58;;;;;;;;;;5039096;28;20052;-63
2023/03/02 03:51:46;;;;;;;3.72;2.60;;;;;;;;;;5043255;28;20066;-65
2023/03/02 03:54:12;;;;;;;6.22;2.45;;;;;;;;;;5034853;28;20531;-64
2023/03/02 03:56:42;;;;;;;5.40;2.60;;;;;;;;;;5033280;28;20491;-63
2023/03/02 03:59:11;;;;;;;3.22;2.30;;;;;;;;;;5034419;28;20063;-64
2023/03/02 04:01:50;;;;;;;5.00;2.63;;;;;;;;;;5036777;28;20052;-63
2023/03/02 04:04:20;;;;;;;4.53;2.60;;;;;;;;;;5039646;28;20060;-63
2023/03/02 04:06:46;;;;;;;6.63;2.90;;;;;;;;;;5042703;28;20110;-63
2023/03/02 04:09:14;;;;;;;5.63;2.78;;;;;;;;;;5043030;28;20041;-62
2023/03/02 04:11:42;;;;;;;4.45;2.80;;;;;;;;;;5046118;28;20044;-63
2023/03/02 04:14:09;;;;;;;8.60;3.10;;;;;;;;;;5039862;28;20052;-64
2023/03/02 04:16:36;;;;;;;12.68;3.40;;;;;;;;;;5032941;28;20057;-63
2023/03/02 04:19:08;;;;;;;5.40;3.28;;;;;;;;;;5033141;28;20053;-65
2023/03/02 04:21:38;;;;;;;7.05;3.28;;;;;;;;;;5044875;28;20843;-64
2023/03/02 04:24:06;;;;;;;6.90;3.20;;;;;;;;;;5037243;28;20041;-62
2023/03/02 04:26:32;;;;;;;10.00;3.38;;;;;;;;;;5041283;28;20049;-64
2023/03/02 04:28:59;;;;;;;6.85;2.90;;;;;;;;;;5045966;28;20053;-64
2023/03/02 04:31:25;;;;;;;7.07;3.00;;;;;;;;;;5042017;28;20140;-64
2023/03/02 04:33:51;;;;;;;9.63;3.30;;;;;;;;;;5042346;28;20041;-64
2023/03/02 04:36:18;;;;;;;7.07;3.22;;;;;;;;;;5045010;28;20045;-65
2023/03/02 04:38:45;;;;;;;6.38;3.60;;;;;;;;;;5045360;28;20052;-65
2023/03/02 04:41:11;;;;;;;9.18;3.45;;;;;;;;;;5041944;28;20040;-65
2023/03/02 04:43:37;;;;;;;6.82;3.10;;;;;;;;;;5041996;28;20053;-63
2023/03/02 04:46:03;;;;;;;4.30;2.60;;;;;;;;;;5046042;28;20493;-63
2023/03/02 04:48:29;;;;;;;3.85;2.60;;;;;;;;;;5042542;28;20612;-62
2023/03/02 04:50:55;;;;;;;7.30;2.70;;;;;;;;;;5045714;28;20127;-64
2023/03/02 04:53:21;;;;;;;6.78;3.40;;;;;;;;;;5037318;28;20064;-63
2023/03/02 04:55:47;;;;;;;6.53;3.58;;;;;;;;;;5044349;28;20048;-62
2023/03/02 04:58:13;;;;;;;5.78;2.90;;;;;;;;;;5042605;28;20053;-63
2023/03/02 05:00:40;;;;;;;5.20;3.05;;;;;;;;;;5034541;28;20068;-65
2023/03/02 05:03:07;;;;;;;9.98;3.20;;;;;;;;;;5037889;28;20060;-67
2023/03/02 05:05:33;;;;;;;8.23;3.53;;;;;;;;;;5037978;28;20135;-63
2023/03/02 05:07:59;;;;;;;4.38;3.03;;;;;;;;;;5035712;28;20132;-63
2023/03/02 05:10:26;;;;;;;5.80;3.30;;;;;;;;;;5045183;28;21126;-64
2023/03/02 05:12:54;;;;;;;10.27;3.65;;;;;;;;;;5043075;28;20057;-62
2023/03/02 05:15:21;;;;;;;8.18;3.28;;;;;;;;;;5042884;28;20063;-63
2023/03/02 05:17:47;;;;;;;10.23;3.63;;;;;;;;;;5041133;28;20107;-62
2023/03/02 05:20:13;;;;;;;7.22;3.50;;;;;;;;;;5041849;28;20061;-66
2023/03/02 05:22:40;;;;;;;15.02;5.10;;;;;;;;;;5043317;28;20057;-65
2023/03/02 05:25:45;;;;;;;8.80;3.80;;;;;;;;;;5046851;28;20052;-64
2023/03/02 05:28:32;;;;;;;7.03;3.60;;;;;;;;;;5033566;28;20056;-64
2023/03/02 05:31:01;;;;;;;7.35;3.42;;;;;;;;;;5041909;28;20045;-65
2023/03/02 05:33:28;;;;;;;7.15;3.38;;;;;;;;;;5040010;28;20057;-67
2023/03/02 05:35:54;;;;;;;9.10;3.38;;;;;;;;;;5043040;28;20056;-66
2023/03/02 05:38:23;;;;;;;7.38;3.67;;;;;;;;;;5037789;28;20053;-65
2023/03/02 05:40:51;;;;;;;6.90;3.88;;;;;;;;;;5039468;28;20051;-64
2023/03/02 05:43:26;;;;;;;6.85;3.92;;;;;;;;;;5039110;28;20053;-65
2023/03/02 05:45:52;;;;;;;9.95;3.85;;;;;;;;;;5039356;28;20045;-65
2023/03/02 05:48:18;;;;;;;10.68;4.13;;;;;;;;;;5036034;28;20057;-65
2023/03/02 05:50:45;;;;;;;9.23;3.63;;;;;;;;;;5036342;28;20045;-65
2023/03/02 05:53:12;;;;;;;9.63;3.80;;;;;;;;;;5041377;28;20118;-65
2023/03/02 05:55:37;;;;;;;13.13;4.25;;;;;;;;;;5038602;28;20038;-65
2023/03/02 05:58:06;;;;;;;10.60;4.15;;;;;;;;;;5037917;28;20057;-67
2023/03/02 06:00:33;;;;;;;7.38;3.78;;;;;;;;;;5035057;28;20053;-67
2023/03/02 06:02:59;;;;;;;11.00;3.95;;;;;;;;;;5040389;28;20052;-67
2023/03/02 06:05:25;;;;;;;7.85;3.90;;;;;;;;;;5039141;28;20140;-68
2023/03/02 06:07:53;;;;;;;7.35;3.20;;;;;;;;;;5035354;28;20226;-67
2023/03/02 06:10:19;;;;;;;9.13;3.30;;;;;;;;;;5034724;28;20045;-67
2023/03/02 06:12:45;;;;;;;7.45;3.20;;;;;;;;;;5038255;28;20051;-66
2023/03/02 06:15:11;;;;;;;6.18;3.20;;;;;;;;;;5035207;28;20049;-65
2023/03/02 06:17:39;;;;;;;6.28;3.20;;;;;;;;;;5046468;28;20049;-66
2023/03/02 06:20:09;;;;;;;3.92;2.67;;;;;;;;;;5041626;28;20495;-65
2023/03/02 06:22:45;;;;;;;13.15;3.42;;;;;;;;;;5043421;28;20124;-65
2023/03/02 06:25:14;;;;;;;5.82;3.17;;;;;;;;;;5043745;28;20048;-66
2023/03/02 06:27:44;;;;;;;4.85;2.63;;;;;;;;;;5044457;28;20052;-67
2023/03/02 06:30:16;;;;;;;7.18;3.15;;;;;;;;;;5040636;28;20079;-66
2023/03/02 06:32:43;;;;;;;8.07;3.17;;;;;;;;;;5041215;28;20055;-65
2023/03/02 06:35:09;;;;;;;5.60;3.10;;;;;;;;;;5047866;28;20053;-64
2023/03/02 06:37:36;;;;;;;6.90;2.35;;;;;;;;;;5046021;28;20053;-62
2023/03/02 06:40:07;;;;;;;4.63;2.85;;;;;;;;;;5039870;28;20519;-64
2023/03/02 06:42:33;;;;;;;6.40;3.17;;;;;;;;;;5044692;28;20072;-63
2023/03/02 06:44:59;;;;;;;4.47;2.55;;;;;;;;;;5048670;28;20053;-65
2023/03/02 06:47:27;;;;;;;7.05;3.00;;;;;;;;;;5041789;28;20057;-65
2023/03/02 06:49:52;;;;;;;6.82;2.97;;;;;;;;;;5041418;28;20479;-66
2023/03/02 06:52:18;;;;;;;6.80;3.47;;;;;;;;;;5041400;28;20052;-66
2023/03/02 06:54:45;;;;;;;10.25;3.95;;;;;;;;;;5047100;28;20053;-65
2023/03/02 06:57:11;;;;;;;6.80;4.78;;;;;;;;;;5043521;28;20049;-67
2023/03/02 06:59:37;;;;;;;6.50;3.58;;;;;;;;;;5042268;28;20049;-63
2023/03/02 07:02:05;;;;;;;8.63;4.07;;;;;;;;;;5034668;28;20163;-66
2023/03/02 07:04:31;;;;;;;12.00;4.20;;;;;;;;;;5037262;28;20520;-64
2023/03/02 07:06:57;;;;;;;17.10;4.28;;;;;;;;;;5045900;28;20053;-66
2023/03/02 07:09:25;;;;;;;8.63;4.28;;;;;;;;;;5040091;28;20044;-64
2023/03/02 07:11:51;;;;;;;8.57;3.88;;;;;;;;;;5036328;28;20057;-65
2023/03/02 07:14:18;;;;;;;9.27;3.92;;;;;;;;;;5037658;28;20067;-65
2023/03/02 07:16:44;;;;;;;6.57;3.47;;;;;;;;;;5038288;28;22011;-66
2023/03/02 07:19:14;;;;;;;8.60;3.47;;;;;;;;;;5032808;28;20590;-65
2023/03/02 07:21:41;;;;;;;7.70;3.50;;;;;;;;;;5038748;28;20049;-67
2023/03/02 07:24:07;;;;;;;7.60;3.60;;;;;;;;;;5036611;28;20394;-63
2023/03/02 07:26:33;;;;;;;9.10;4.10;;;;;;;;;;5035059;28;20755;-63
2023/03/02 07:28:59;;;;;;;6.05;3.53;;;;;;;;;;5039408;28;20059;-66
2023/03/02 07:31:27;;;;;;;15.45;4.22;;;;;;;;;;5040364;28;20084;-66
2023/03/02 07:33:55;;;;;;;11.23;5.00;;;;;;;;;;5039234;28;20048;-71
2023/03/02 07:36:21;;;;;;;9.98;4.47;;;;;;;;;;5042928;28;20068;-66
2023/03/02 07:38:50;;;;;;;18.05;5.38;;;;;;;;;;5038378;28;20037;-65
2023/03/02 07:41:16;;;;;;;8.13;4.82;;;;;;;;;;5036830;28;20044;-67
2023/03/02 07:43:42;;;;;;;11.65;3.92;;;;;;;;;;5039237;28;20055;-69
2023/03/02 07:46:10;;;;;;;8.10;4.00;;;;;;;;;;5034390;28;20049;-66
2023/03/02 07:48:36;;;;;;;9.40;4.30;;;;;;;;;;5036313;28;20109;-68
2023/03/02 07:51:04;;;;;;;9.98;3.92;;;;;;;;;;5035652;28;20045;-68
2023/03/02 07:53:30;;;;;;;10.15;4.28;;;;;;;;;;5039373;28;20064;-68
2023/03/02 07:56:05;;;;;;;10.20;4.97;;;;;;;;;;5040552;28;20049;-66
2023/03/02 07:58:31;;;;;;;17.67;3.75;;;;;;;;;;5033792;28;20132;-67
2023/03/02 08:01:05;;;;;;;16.20;4.50;;;;;;;;;;5037718;28;20064;-69
2023/03/02 08:03:31;;;;;;;9.23;4.90;;;;;;;;;;5033234;28;20061;-68
2023/03/02 08:05:58;;;;;;;11.73;4.13;;;;;;;;;;5038083;28;20119;-69
2023/03/02 08:08:23;;;;;;;9.20;4.28;;;;;;;;;;5041666;28;20590;-67
2023/03/02 08:10:50;;;;;;;12.63;4.18;;;;;;;;;;5044354;28;20060;-69
2023/03/02 08:13:16;;;;;;;19.95;4.82;;;;;;;;;;5041226;28;20057;-67
2023/03/02 08:15:42;;;;;;;15.85;4.38;;;;;;;;;;5030434;28;20519;-67
2023/03/02 08:18:08;;;;;;;8.02;4.13;;;;;;;;;;5035333;28;20045;-67
2023/03/02 08:20:35;;;;;;;10.68;4.00;;;;;;;;;;5034691;28;20548;-66
2023/03/02 08:23:01;;;;;;;15.38;5.43;;;;;;;;;;5037304;28;20052;-66
2023/03/02 08:25:27;;;;;;;11.82;4.43;;;;;;;;;;5036339;28;20118;-68
2023/03/02 08:28:33;;;;;;;16.13;4.35;;;;;;;;;;5039055;28;20167;-66
2023/03/02 08:32:13;;;;;;;10.80;4.03;;;;;;;;;;5042466;28;20196;-68
2023/03/02 08:34:40;;;;;;;9.32;4.40;;;;;;;;;;5037732;28;20045;-68
2023/03/02 08:37:05;;;;;;;11.45;4.43;;;;;;;;;;5036287;28;20055;-67
2023/03/02 08:40:11;;;;;;;9.95;4.45;;;;;;;;;;5038125;28;20053;-67
2023/03/02 08:43:54;;;;;;;12.38;4.10;;;;;;;;;;5042080;28;20106;-67
2023/03/02 08:47:35;;;;;;;17.60;4.35;;;;;;;;;;5034458;28;20045;-68
2023/03/02 08:50:41;;;;;;;10.35;4.18;;;;;;;;;;5041154;28;20050;-65
2023/03/02 08:53:45;;;;;;;9.40;3.90;;;;;;;;;;5043880;28;20048;-69
2023/03/02 08:56:51;;;;;;;12.20;4.57;;;;;;;;;;5041865;28;20122;-67
2023/03/02 09:00:32;;;;;;;10.40;5.00;;;;;;;;;;5043041;28;20503;-69
2023/03/02 09:04:12;;;;;;;9.05;4.53;;;;;;;;;;5040999;28;20128;-67
2023/03/02 09:07:53;;;;;;;9.18;4.55;;;;;;;;;;5042104;28;20053;-69
2023/03/02 09:11:33;;;;;;;15.43;4.45;;;;;;;;;;5044817;28;20037;-69
2023/03/02 09:15:13;;;;;;;9.35;3.97;;;;;;;;;;5032341;28;20369;-67
2023/03/02 09:18:54;;;;;;;12.63;3.83;;;;;;;;;;5045740;28;20106;-67
2023/03/02 09:21:54;;;;;;;5.78;3.65;;;;;;;;;;5042358;28;20057;-65
2023/03/02 09:25:00;;;;;;;14.52;4.18;;;;;;;;;;5038696;28;20128;-66
2023/03/02 09:28:41;;;;;;;4.28;3.03;;;;;;;;;;5042802;28;20177;-68
2023/03/02 09:32:21;;;;;;;6.13;2.80;;;;;;;;;;5043030;28;20049;-67
2023/03/02 09:36:02;;;;;;;4.63;3.28;;;;;;;;;;5037507;28;20052;-68
2023/03/02 09:39:42;;;;;;;11.90;3.78;;;;;;;;;;5037668;28;21165;-70
2023/03/02 09:43:04;;;;;;;6.03;3.70;;;;;;;;;;5035466;28;20073;-66
2023/03/02 09:46:13;;;;;;;7.82;3.95;;;;;;;;;;5040480;28;20045;-69
2023/03/02 09:49:52;;;;;;;8.55;3.63;;;;;;;;;;5038126;28;20041;-70
2023/03/02 09:53:15;;;;;;;8.80;4.28;;;;;;;;;;5037103;28;20154;-70
2023/03/02 09:57:03;;;;;;;5.82;3.17;;;;;;;;;;5037983;28;20089;-71
2023/03/02 10:00:50;;;;;;;7.25;3.38;;;;;;;;;;5041727;28;20052;-71
2023/03/02 10:04:16;;;;;;;8.95;4.38;;;;;;;;;;5037256;28;20527;-71
2023/03/02 10:07:29;;;;;;;4.82;3.42;;;;;;;;;;5033716;28;20076;-69
2023/03/02 10:10:59;;;;;;;10.48;3.40;;;;;;;;;;5039464;28;20068;-70
2023/03/02 10:14:48;;;;;;;4.55;3.30;;;;;;;;;;5043322;28;20041;-70
2023/03/02 10:18:13;;;;;;;5.75;3.50;;;;;;;;;;5036485;28;20099;-69
2023/03/02 10:21:20;;;;;;;6.57;3.60;;;;;;;;;;5040280;28;20046;-70
2023/03/02 10:24:56;;;;;;;10.10;3.78;;;;;;;;;;5044805;28;20053;-70
2023/03/02 10:28:39;;;;;;;8.55;3.60;;;;;;;;;;5041845;28;20041;-70
2023/03/02 10:32:09;;;;;;;7.85;3.95;;;;;;;;;;5038041;28;20041;-69
2023/03/02 10:35:59;;;;;;;5.13;3.25;;;;;;;;;;5044191;28;20045;-73
2023/03/02 10:39:37;;;;;;;7.97;3.72;;;;;;;;;;5037195;28;20053;-69
2023/03/02 10:43:18;;;;;;;8.00;4.20;;;;;;;;;;5038869;28;20236;-71
2023/03/02 10:46:59;;;;;;;8.13;3.55;;;;;;;;;;5035351;28;20049;-70
2023/03/02 10:50:39;;;;;;;7.80;3.90;;;;;;;;;;5040547;28;20048;-71
2023/03/02 10:54:05;;;;;;;5.30;3.88;;;;;;;;;;5040318;28;20053;-67
2023/03/02 10:57:41;;;;;;;;;;;;;;;;;;5035393;28;20048;-69
2023/03/02 11:01:24;;;;;;;10.45;3.90;;;;;;;;;;4998728;28;19945;-69
2023/03/02 11:05:04;;;;;;;9.60;3.50;;;;;;;;;;4997307;28;20631;-69
2023/03/02 11:08:47;;;;;;;9.15;3.80;;;;;;;;;;4998307;28;20054;-68
2023/03/02 11:12:33;;;;;;;7.07;3.80;;;;;;;;;;4996373;28;20406;-69
2023/03/02 11:16:14;;;;;;;7.63;3.83;;;;;;;;;;4995295;28;20715;-68
2023/03/02 11:19:54;;;;;;;7.15;4.03;;;;;;;;;;4991953;28;20140;-70
2023/03/02 11:23:22;;;;;;;11.13;4.30;;;;;;;;;;5002971;28;20175;-70
2023/03/02 11:27:06;;;;;;;8.65;3.92;;;;;;;;;;4998001;28;20153;-70
2023/03/02 11:30:46;;;;;;;8.23;4.78;;;;;;;;;;4988818;28;20050;-69
2023/03/02 11:34:19;;;;;;;10.30;4.07;;;;;;;;;;5006115;28;20501;-70
2023/03/02 11:37:58;;;;;;;6.75;4.07;;;;;;;;;;5032957;28;20374;-71
2023/03/02 11:41:23;;;;;;;6.18;3.55;;;;;;;;;;5043112;28;20120;-69
2023/03/02 11:45:00;;;;;;;8.45;3.60;;;;;;;;;;5038942;28;20029;-68
2023/03/02 11:48:07;;;;;;;10.45;3.90;;;;;;;;;;5036827;28;20053;-68
2023/03/02 11:51:56;;;;;;;7.03;3.50;;;;;;;;;;5039098;28;20063;-70
2023/03/02 11:55:36;;;;;;;8.82;3.63;;;;;;;;;;5035279;28;20338;-69
2023/03/02 11:59:16;;;;;;;10.23;4.00;;;;;;;;;;5033846;28;20056;-69
2023/03/02 12:02:57;;;;;;;7.88;4.32;;;;;;;;;;5039063;28;20186;-70
2023/03/02 12:06:20;;;;;;;7.15;4.07;;;;;;;;;;5036460;28;20040;-73
2023/03/02 12:09:43;;;;;;;6.68;3.80;;;;;;;;;;5039376;28;20428;-68
2023/03/02 12:13:33;;;;;;;7.38;3.85;;;;;;;;;;5038277;28;20049;-71
2023/03/02 12:17:25;;;;;;;7.30;4.15;;;;;;;;;;5037729;28;20059;-74
2023/03/02 12:21:05;;;;;;;8.00;4.60;;;;;;;;;;5041285;28;20059;-70
2023/03/02 12:24:46;;;;;;;6.82;3.58;;;;;;;;;;5039973;28;20048;-72
2023/03/02 12:28:26;;;;;;;8.27;3.90;;;;;;;;;;5042807;28;20049;-69
2023/03/02 12:32:06;;;;;;;8.48;4.10;;;;;;;;;;5038004;28;20041;-67
2023/03/02 12:35:07;;;;;;;6.50;4.15;;;;;;;;;;5037245;28;20057;-67
2023/03/02 12:38:57;;;;;;;7.55;4.13;;;;;;;;;;5033006;28;20061;-69
2023/03/02 12:42:35;;;;;;;8.20;4.72;;;;;;;;;;5039160;28;20041;-67
2023/03/02 12:46:02;;;;;;;12.88;4.53;;;;;;;;;;5037514;28;20051;-71
2023/03/02 12:49:44;;;;;;;13.52;6.55;;;;;;;;;;5044041;28;20045;-67
2023/03/02 12:52:29;;;;;;;7.32;4.55;;;;;;;;;;5040127;28;20049;-66
2023/03/02 12:55:15;;;;;;;15.90;4.85;;;;;;;;;;5040376;28;20045;-66
2023/03/02 12:58:36;;;;;;;9.30;4.63;;;;;;;;;;5040933;28;20060;-66
2023/03/02 13:02:15;;;;;;;13.68;4.28;;;;;;;;;;5039566;28;20053;-67
2023/03/02 13:05:58;;;;;;;10.95;4.22;;;;;;;;;;5043528;28;20111;-68
2023/03/02 13:09:39;;;;;;;8.38;4.30;;;;;;;;;;5039157;28;20053;-66
2023/03/02 13:13:19;;;;;;;10.43;4.45;;;;;;;;;;5036730;28;20094;-67
2023/03/02 13:16:23;;;;;;;14.73;4.80;;;;;;;;;;5037914;28;20389;-68
2023/03/02 13:20:03;;;;;;;7.80;4.30;;;;;;;;;;5038151;28;20131;-67
2023/03/02 13:23:43;;;;;;;8.40;4.40;;;;;;;;;;5037698;28;20056;-69
2023/03/02 13:27:24;;;;;;;7.38;4.30;;;;;;;;;;5034580;28;20102;-69
2023/03/02 13:31:04;;;;;;;14.65;4.45;;;;;;;;;;5035245;28;20158;-70
2023/03/02 13:34:45;;;;;;;7.38;4.47;;;;;;;;;;5043585;28;20162;-68
2023/03/02 13:38:25;;;;;;;9.32;4.90;;;;;;;;;;5042617;28;20044;-69
2023/03/02 13:42:11;;;;;;;12.45;5.00;;;;;;;;;;5041061;28;20083;-67
2023/03/02 13:45:53;;;;;;;7.32;4.78;;;;;;;;;;5040885;28;20049;-69
2023/03/02 13:49:51;;;;;;;12.43;5.15;;;;;;;;;;5039028;28;20412;-70
2023/03/02 13:53:36;;;;;;;7.68;4.75;;;;;;;;;;5032667;28;20064;-67
2023/03/02 13:57:12;;;;;;;7.95;5.03;;;;;;;;;;5038213;28;20397;-68
2023/03/02 14:00:33;;;;;;;11.60;4.65;;;;;;;;;;5038773;28;20081;-68
2023/03/02 14:04:13;;;;;;;9.90;4.80;;;;;;;;;;5042028;28;20352;-69
2023/03/02 14:07:53;;;;;;;11.30;4.93;;;;;;;;;;5037065;28;20056;-67
2023/03/02 14:11:34;;;;;;;14.32;5.07;;;;;;;;;;5034643;28;20098;-67
2023/03/02 14:15:14;;;;;;;10.10;5.05;;;;;;;;;;5038646;28;20049;-66
2023/03/02 14:18:55;;;;;;;8.88;4.43;;;;;;;;;;5036710;28;20049;-68
2023/03/02 14:22:35;;;;;;;11.05;5.00;;;;;;;;;;5038212;28;20393;-68
2023/03/02 14:26:15;;;;;;;9.30;4.55;;;;;;;;;;5030182;28;20053;-68
2023/03/02 14:29:56;;;;;;;11.20;5.15;;;;;;;;;;5038292;28;20061;-68
2023/03/02 14:33:36;;;;;;;11.60;4.93;;;;;;;;;;5036211;28;20041;-67
2023/03/02 14:37:17;;;;;;;24.02;5.13;;;;;;;;;;5035377;28;20138;-69
2023/03/02 14:40:57;;;;;;;9.48;4.95;;;;;;;;;;5038657;28;20504;-68
2023/03/02 14:44:38;;;;;;;8.57;5.00;;;;;;;;;;5035918;28;20048;-68
2023/03/02 14:48:18;;;;;;;11.73;5.30;;;;;;;;;;5043027;28;20485;-68
2023/03/02 14:52:05;;;;;;;9.30;5.15;;;;;;;;;;5040279;28;20041;-68
2023/03/02 14:55:45;;;;;;;13.07;5.43;;;;;;;;;;5031927;28;20106;-68
2023/03/02 14:59:25;;;;;;;8.40;4.68;;;;;;;;;;5036955;28;20380;-67
2023/03/02 15:03:06;;;;;;;12.40;5.28;;;;;;;;;;5039535;28;20049;-67
2023/03/02 15:07:06;;;;;;;7.53;5.20;;;;;;;;;;5037493;28;20081;-67
2023/03/02 15:10:48;;;;;;;7.63;4.82;;;;;;;;;;5038568;28;20211;-67
2023/03/02 15:14:28;;;;;;;7.75;4.85;;;;;;;;;;5035896;28;20055;-66
2023/03/02 15:18:05;;;;;;;10.63;5.07;;;;;;;;;;5036063;28;20536;-65
2023/03/02 15:21:12;;;;;;;14.30;5.30;;;;;;;;;;5036375;28;20085;-66
2023/03/02 15:24:52;;;;;;;8.93;5.03;;;;;;;;;;5039307;28;20053;-69
2023/03/02 15:28:10;;;;;;;8.95;4.82;;;;;;;;;;5042096;28;20139;-66
2023/03/02 15:30:36;;;;;;;10.57;4.40;;;;;;;;;;5036459;28;20045;-69
2023/03/02 15:33:19;;;;;;;9.68;5.05;;;;;;;;;;5066331;22;20768;-70
2023/03/02 15:35:45;;;;;;;13.23;5.65;;;;;;;;;;5058818;28;20094;-69
2023/03/02 15:38:53;;;;;;;9.57;5.18;;;;;;;;;;5060588;28;20048;-71
2023/03/02 15:41:53;;;;;;;9.52;4.80;;;;;;;;;;5060146;28;20797;-72
2023/03/02 15:44:22;;;;;;;9.80;5.07;;;;;;;;;;5031715;28;20050;-72
2023/03/02 15:46:52;;;;;;;9.27;4.93;;;;;;;;;;5061381;28;20051;-69
2023/03/02 15:49:21;;;;;;;10.52;4.93;;;;;;;;;;5062261;28;20044;-69
2023/03/02 15:51:51;;;;;;;9.43;4.80;;;;;;;;;;5056667;28;20364;-71
2023/03/02 15:54:18;;;;;;;9.20;4.70;;;;;;;;;;5059680;28;20044;-72
2023/03/02 15:56:44;;;;;;;10.05;5.78;;;;;;;;;;5059993;28;20056;-73
2023/03/02 15:59:17;;;;;;;9.57;4.45;;;;;;;;;;5054136;28;20114;-73
2023/03/02 16:01:43;;;;;;;7.13;4.25;;;;;;;;;;5064247;28;20473;-71
2023/03/02 16:04:49;;;;;;;5.90;4.03;;;;;;;;;;5061744;28;20057;-71
2023/03/02 16:08:29;;;;;;;7.05;4.70;;;;;;;;;;5060728;28;20099;-67
2023/03/02 16:12:10;;;;;;;7.88;4.22;;;;;;;;;;5062059;28;20052;-68
2023/03/02 16:15:11;;;;;;;9.75;4.15;;;;;;;;;;5056857;28;20617;-69
2023/03/02 16:17:38;;;;;;;8.20;4.53;;;;;;;;;;5062677;28;20123;-70
2023/03/02 16:20:05;;;;;;;10.45;4.50;;;;;;;;;;5069870;28;20044;-70
2023/03/02 16:22:32;;;;;;;7.65;4.18;;;;;;;;;;5067212;28;20114;-72
2023/03/02 16:24:58;;;;;;;8.95;4.53;;;;;;;;;;5069500;28;20063;-72
2023/03/02 16:27:24;;;;;;;6.45;4.40;;;;;;;;;;5070090;28;20300;-68
2023/03/02 16:29:50;;;;;;;11.50;4.97;;;;;;;;;;5069031;28;20242;-71
2023/03/02 16:32:20;;;;;;;8.70;4.97;;;;;;;;;;5046723;28;20057;-71
2023/03/02 16:34:46;;;;;;;12.73;4.53;;;;;;;;;;5061257;28;20047;-70
2023/03/02 16:37:52;;;;;;;11.05;5.45;;;;;;;;;;5064819;28;20044;-69
2023/03/02 16:41:33;;;;;;;8.32;4.70;;;;;;;;;;5058551;28;20529;-69
2023/03/02 16:45:13;;;;;;;8.82;4.70;;;;;;;;;;5063404;28;20507;-68
2023/03/02 16:48:54;;;;;;;11.13;5.22;;;;;;;;;;5058101;28;20530;-71
2023/03/02 16:52:37;;;;;;;9.52;5.68;;;;;;;;;;5061344;28;20083;-68
2023/03/02 16:56:17;;;;;;;7.45;4.95;;;;;;;;;;5062411;28;20083;-71
2023/03/02 16:59:58;;;;;;;11.63;5.95;;;;;;;;;;5062045;28;20052;-71
2023/03/02 17:03:38;;;;;;;13.88;6.15;;;;;;;;;;5060169;28;20072;-68
2023/03/02 17:07:20;;;;;;;12.05;5.38;;;;;;;;;;5068885;28;20111;-72
2023/03/02 17:11:01;;;;;;;17.20;6.38;;;;;;;;;;5056079;28;20052;-72
2023/03/02 17:14:42;;;;;;;7.85;5.22;;;;;;;;;;5055984;28;20044;-69